SWA616 KMCO-MYNN
Flight info
| Callsign | SWA616 |
|---|---|
| Flight time | 0h 54m |
| Altitude | 31000 |
| Route | KMCO/35L N0465F310 DDANY3 JIPOD DCT JUNIP DCT ZFP BR63V ZQA DCT MYNN/32 |
| Aircraft | B38M/M-SDE1FGHILORVWXY/HB1 |
Departure
| Time | 2026-05-04 20:16 |
|---|---|
| Airport | Orlando International Airport (KMCO) |
Arrival
| Time | 2026-05-04 21:10 |
|---|---|
| Airport | Lynden Pindling International Airport (MYNN) |
| Time | Latitude | Longitude | Altitude | Speed | Heading |
|---|---|---|---|---|---|
| 2026-05-04 19:38 | 28.43728 | -81.30095 | 103 ft | 0 kts | 150° |
| 2026-05-04 20:04 | 28.43729 | -81.30095 | 103 ft | 1 kts | 150° |
| 2026-05-04 20:04 | 28.43750 | -81.30108 | 103 ft | 4 kts | 155° |
| 2026-05-04 20:04 | 28.43775 | -81.30120 | 101 ft | 4 kts | 156° |
| 2026-05-04 20:04 | 28.43798 | -81.30135 | 103 ft | 4 kts | 129° |
| 2026-05-04 20:05 | 28.43802 | -81.30146 | 101 ft | 1 kts | 52° |
| 2026-05-04 20:05 | 28.43799 | -81.30150 | 100 ft | 0 kts | 52° |
| 2026-05-04 20:08 | 28.43808 | -81.30137 | 103 ft | 5 kts | 52° |
| 2026-05-04 20:08 | 28.43827 | -81.30073 | 103 ft | 11 kts | 88° |
| 2026-05-04 20:09 | 28.43822 | -81.30010 | 104 ft | 7 kts | 99° |
| 2026-05-04 20:09 | 28.43837 | -81.29959 | 105 ft | 7 kts | 54° |
| 2026-05-04 20:09 | 28.43848 | -81.29904 | 105 ft | 8 kts | 107° |
| 2026-05-04 20:09 | 28.43805 | -81.29850 | 105 ft | 11 kts | 146° |
| 2026-05-04 20:10 | 28.43717 | -81.29810 | 106 ft | 16 kts | 169° |
| 2026-05-04 20:10 | 28.43596 | -81.29806 | 106 ft | 18 kts | 179° |
| 2026-05-04 20:10 | 28.43463 | -81.29804 | 106 ft | 20 kts | 179° |
| 2026-05-04 20:10 | 28.43319 | -81.29803 | 106 ft | 21 kts | 179° |
| 2026-05-04 20:11 | 28.43165 | -81.29801 | 106 ft | 23 kts | 180° |
| 2026-05-04 20:11 | 28.43002 | -81.29800 | 106 ft | 24 kts | 180° |
| 2026-05-04 20:11 | 28.42825 | -81.29798 | 105 ft | 27 kts | 179° |
| 2026-05-04 20:11 | 28.42621 | -81.29796 | 105 ft | 31 kts | 179° |
| 2026-05-04 20:12 | 28.42401 | -81.29792 | 105 ft | 32 kts | 179° |
| 2026-05-04 20:12 | 28.42177 | -81.29793 | 104 ft | 32 kts | 179° |
| 2026-05-04 20:12 | 28.41951 | -81.29790 | 105 ft | 32 kts | 179° |
| 2026-05-04 20:12 | 28.41734 | -81.29788 | 104 ft | 31 kts | 179° |
| 2026-05-04 20:13 | 28.41520 | -81.29786 | 104 ft | 29 kts | 180° |
| 2026-05-04 20:13 | 28.41318 | -81.29783 | 103 ft | 26 kts | 179° |
| 2026-05-04 20:13 | 28.41140 | -81.29781 | 103 ft | 25 kts | 179° |
| 2026-05-04 20:13 | 28.40976 | -81.29779 | 102 ft | 19 kts | 180° |
| 2026-05-04 20:14 | 28.40874 | -81.29780 | 102 ft | 8 kts | 180° |
| 2026-05-04 20:14 | 28.40824 | -81.29750 | 102 ft | 10 kts | 115° |
| 2026-05-04 20:14 | 28.40820 | -81.29667 | 102 ft | 12 kts | 90° |
| 2026-05-04 20:14 | 28.40822 | -81.29590 | 100 ft | 9 kts | 79° |
| 2026-05-04 20:15 | 28.40885 | -81.29559 | 100 ft | 15 kts | 1° |
| 2026-05-04 20:15 | 28.41166 | -81.29561 | 103 ft | 75 kts | 360° |
| 2026-05-04 20:15 | 28.41904 | -81.29570 | 106 ft | 136 kts | 359° |
| 2026-05-04 20:15 | 28.43017 | -81.29583 | 191 ft | 175 kts | 1° |
| 2026-05-04 20:16 | 28.44253 | -81.29652 | 828 ft | 177 kts | 1° |
| 2026-05-04 20:16 | 28.45487 | -81.29574 | 1528 ft | 175 kts | 21° |
| 2026-05-04 20:16 | 28.46450 | -81.28776 | 2051 ft | 178 kts | 61° |
| 2026-05-04 20:16 | 28.46928 | -81.27482 | 2752 ft | 183 kts | 71° |
| 2026-05-04 20:17 | 28.47514 | -81.26114 | 3253 ft | 198 kts | 56° |
| 2026-05-04 20:17 | 28.48291 | -81.24850 | 4022 ft | 194 kts | 55° |
| 2026-05-04 20:17 | 28.49112 | -81.23565 | 4682 ft | 211 kts | 54° |
| 2026-05-04 20:17 | 28.50006 | -81.22141 | 5146 ft | 230 kts | 63° |
| 2026-05-04 20:18 | 28.50488 | -81.20312 | 5592 ft | 253 kts | 78° |
| 2026-05-04 20:18 | 28.50871 | -81.18284 | 6144 ft | 272 kts | 78° |
| 2026-05-04 20:18 | 28.50931 | -81.16100 | 6783 ft | 281 kts | 102° |
| 2026-05-04 20:18 | 28.50470 | -81.13928 | 7606 ft | 287 kts | 104° |
| 2026-05-04 20:19 | 28.49992 | -81.11676 | 8308 ft | 298 kts | 105° |
| 2026-05-04 20:19 | 28.49492 | -81.09381 | 9186 ft | 300 kts | 105° |
| 2026-05-04 20:19 | 28.48978 | -81.07074 | 9925 ft | 308 kts | 107° |
| 2026-05-04 20:19 | 28.48086 | -81.04853 | 10499 ft | 317 kts | 129° |
| 2026-05-04 20:20 | 28.46467 | -81.03076 | 10863 ft | 332 kts | 144° |
| 2026-05-04 20:20 | 28.44612 | -81.01374 | 11220 ft | 352 kts | 143° |
| 2026-05-04 20:20 | 28.42678 | -80.99593 | 11738 ft | 363 kts | 143° |
| 2026-05-04 20:20 | 28.40703 | -80.97785 | 12483 ft | 366 kts | 143° |
| 2026-05-04 20:21 | 28.38704 | -80.95962 | 13194 ft | 371 kts | 143° |
| 2026-05-04 20:21 | 28.36684 | -80.94122 | 13926 ft | 374 kts | 143° |
| 2026-05-04 20:21 | 28.32929 | -80.89969 | 15196 ft | 385 kts | 120° |
| 2026-05-04 20:22 | 28.31854 | -80.87165 | 15821 ft | 390 kts | 114° |
| 2026-05-04 20:22 | 28.30746 | -80.84326 | 16377 ft | 396 kts | 115° |
| 2026-05-04 20:22 | 28.29603 | -80.81460 | 16931 ft | 401 kts | 116° |
| 2026-05-04 20:22 | 28.28434 | -80.78557 | 17510 ft | 406 kts | 116° |
| 2026-05-04 20:23 | 28.27262 | -80.75661 | 18100 ft | 412 kts | 117° |
| 2026-05-04 20:23 | 28.26062 | -80.72700 | 18658 ft | 416 kts | 117° |
| 2026-05-04 20:23 | 28.24843 | -80.69696 | 19173 ft | 420 kts | 117° |
| 2026-05-04 20:23 | 28.23609 | -80.66658 | 19656 ft | 424 kts | 117° |
| 2026-05-04 20:24 | 28.22366 | -80.63602 | 20157 ft | 428 kts | 117° |
| 2026-05-04 20:24 | 28.21111 | -80.60515 | 20639 ft | 432 kts | 117° |
| 2026-05-04 20:24 | 28.19847 | -80.57410 | 21115 ft | 436 kts | 117° |
| 2026-05-04 20:24 | 28.18572 | -80.54282 | 21593 ft | 439 kts | 117° |
| 2026-05-04 20:25 | 28.17303 | -80.51169 | 22060 ft | 443 kts | 117° |
| 2026-05-04 20:25 | 28.16005 | -80.47988 | 22518 ft | 446 kts | 117° |
| 2026-05-04 20:25 | 28.14693 | -80.44773 | 22976 ft | 450 kts | 118° |
| 2026-05-04 20:25 | 28.13369 | -80.41535 | 23429 ft | 453 kts | 118° |
| 2026-05-04 20:26 | 28.12051 | -80.38312 | 23835 ft | 457 kts | 118° |
| 2026-05-04 20:26 | 28.10674 | -80.35063 | 24214 ft | 458 kts | 123° |
| 2026-05-04 20:26 | 28.08790 | -80.32197 | 24564 ft | 452 kts | 140° |
| 2026-05-04 20:26 | 28.06348 | -80.29984 | 24892 ft | 449 kts | 150° |
| 2026-05-04 20:27 | 28.04607 | -80.28626 | 25089 ft | 452 kts | 151° |
| 2026-05-04 20:27 | 28.01992 | -80.26638 | 25469 ft | 454 kts | 152° |
| 2026-05-04 20:27 | 27.99348 | -80.24666 | 25822 ft | 456 kts | 152° |
| 2026-05-04 20:27 | 27.96675 | -80.22698 | 26175 ft | 459 kts | 153° |
| 2026-05-04 20:28 | 27.93989 | -80.20734 | 26531 ft | 462 kts | 153° |
| 2026-05-04 20:28 | 27.91317 | -80.18785 | 26869 ft | 464 kts | 153° |
| 2026-05-04 20:28 | 27.88552 | -80.16771 | 27211 ft | 467 kts | 153° |
| 2026-05-04 20:28 | 27.85839 | -80.14795 | 27537 ft | 470 kts | 153° |
| 2026-05-04 20:29 | 27.83078 | -80.12786 | 27862 ft | 473 kts | 153° |
| 2026-05-04 20:29 | 27.80305 | -80.10769 | 28179 ft | 476 kts | 153° |
| 2026-05-04 20:29 | 27.77506 | -80.08736 | 28493 ft | 479 kts | 153° |
| 2026-05-04 20:29 | 27.74698 | -80.06696 | 28806 ft | 482 kts | 154° |
| 2026-05-04 20:30 | 27.71870 | -80.04643 | 29117 ft | 484 kts | 154° |
| 2026-05-04 20:30 | 27.69028 | -80.02582 | 29417 ft | 487 kts | 154° |
| 2026-05-04 20:30 | 27.66168 | -80.00509 | 29703 ft | 490 kts | 154° |
| 2026-05-04 20:30 | 27.63292 | -79.98425 | 29993 ft | 493 kts | 154° |
| 2026-05-04 20:31 | 27.60395 | -79.96328 | 30251 ft | 496 kts | 154° |
| 2026-05-04 20:31 | 27.57528 | -79.94254 | 30520 ft | 497 kts | 154° |
| 2026-05-04 20:31 | 27.54574 | -79.92117 | 30817 ft | 499 kts | 154° |
| 2026-05-04 20:31 | 27.51684 | -79.90028 | 31019 ft | 501 kts | 154° |
| 2026-05-04 20:32 | 27.45793 | -79.85776 | 31038 ft | 501 kts | 154° |
| 2026-05-04 20:32 | 27.39916 | -79.81538 | 31036 ft | 502 kts | 154° |
| 2026-05-04 20:33 | 27.34037 | -79.77304 | 31032 ft | 502 kts | 154° |
| 2026-05-04 20:33 | 27.28146 | -79.73067 | 31032 ft | 502 kts | 154° |
| 2026-05-04 20:34 | 27.25293 | -79.70761 | 31016 ft | 510 kts | 143° |
| 2026-05-04 20:34 | 27.22908 | -79.67763 | 31038 ft | 519 kts | 133° |
| 2026-05-04 20:34 | 27.18465 | -79.61361 | 31027 ft | 520 kts | 133° |
| 2026-05-04 20:35 | 27.14088 | -79.54949 | 31026 ft | 520 kts | 132° |
| 2026-05-04 20:35 | 27.09698 | -79.48507 | 31029 ft | 520 kts | 132° |
| 2026-05-04 20:36 | 27.05299 | -79.42061 | 31023 ft | 519 kts | 132° |
| 2026-05-04 20:36 | 27.00904 | -79.35631 | 31022 ft | 519 kts | 132° |
| 2026-05-04 20:37 | 26.96518 | -79.29223 | 31022 ft | 518 kts | 132° |
| 2026-05-04 20:37 | 26.92120 | -79.22807 | 31021 ft | 518 kts | 132° |
| 2026-05-04 20:38 | 26.87731 | -79.16412 | 31019 ft | 518 kts | 132° |
| 2026-05-04 20:38 | 26.83336 | -79.10019 | 31016 ft | 517 kts | 132° |
| 2026-05-04 20:39 | 26.78964 | -79.03668 | 31016 ft | 517 kts | 133° |
| 2026-05-04 20:39 | 26.74573 | -78.97298 | 31013 ft | 516 kts | 133° |
| 2026-05-04 20:40 | 26.70182 | -78.90938 | 31015 ft | 516 kts | 133° |
| 2026-05-04 20:40 | 26.65791 | -78.84585 | 31019 ft | 515 kts | 133° |
| 2026-05-04 20:41 | 26.61431 | -78.78288 | 31020 ft | 515 kts | 133° |
| 2026-05-04 20:41 | 26.59236 | -78.75119 | 30887 ft | 515 kts | 133° |
| 2026-05-04 20:41 | 26.57049 | -78.71964 | 30633 ft | 514 kts | 133° |
| 2026-05-04 20:42 | 26.54837 | -78.68819 | 30371 ft | 514 kts | 133° |
| 2026-05-04 20:42 | 26.52611 | -78.65681 | 30110 ft | 515 kts | 133° |
| 2026-05-04 20:42 | 26.50384 | -78.62537 | 29824 ft | 516 kts | 133° |
| 2026-05-04 20:42 | 26.48159 | -78.59398 | 29517 ft | 514 kts | 133° |
| 2026-05-04 20:43 | 26.45947 | -78.56277 | 29225 ft | 512 kts | 133° |
| 2026-05-04 20:43 | 26.43739 | -78.53171 | 28928 ft | 509 kts | 133° |
| 2026-05-04 20:43 | 26.41546 | -78.50087 | 28632 ft | 506 kts | 133° |
| 2026-05-04 20:43 | 26.39367 | -78.47024 | 28340 ft | 503 kts | 133° |
| 2026-05-04 20:44 | 26.37196 | -78.43976 | 28058 ft | 500 kts | 133° |
| 2026-05-04 20:44 | 26.35036 | -78.40945 | 27778 ft | 498 kts | 133° |
| 2026-05-04 20:44 | 26.32885 | -78.37928 | 27495 ft | 495 kts | 133° |
| 2026-05-04 20:44 | 26.30752 | -78.34939 | 27225 ft | 492 kts | 133° |
| 2026-05-04 20:45 | 26.28620 | -78.31952 | 26951 ft | 490 kts | 133° |
| 2026-05-04 20:45 | 26.26508 | -78.28996 | 26685 ft | 487 kts | 133° |
| 2026-05-04 20:45 | 26.24429 | -78.26088 | 26426 ft | 485 kts | 133° |
| 2026-05-04 20:45 | 26.22332 | -78.23156 | 26166 ft | 483 kts | 133° |
| 2026-05-04 20:46 | 26.20243 | -78.20237 | 25906 ft | 480 kts | 133° |
| 2026-05-04 20:46 | 26.18170 | -78.17343 | 25658 ft | 478 kts | 133° |
| 2026-05-04 20:46 | 26.16107 | -78.14466 | 25042 ft | 475 kts | 133° |
| 2026-05-04 20:46 | 26.14032 | -78.11572 | 24289 ft | 478 kts | 133° |
| 2026-05-04 20:47 | 26.11960 | -78.08685 | 23685 ft | 477 kts | 133° |
| 2026-05-04 20:47 | 26.09894 | -78.05807 | 23005 ft | 475 kts | 133° |
| 2026-05-04 20:47 | 26.07832 | -78.02937 | 22368 ft | 472 kts | 133° |
| 2026-05-04 20:47 | 26.05782 | -78.00087 | 21760 ft | 469 kts | 133° |
| 2026-05-04 20:48 | 26.03755 | -77.97269 | 21162 ft | 465 kts | 133° |
| 2026-05-04 20:48 | 26.01737 | -77.94466 | 20574 ft | 463 kts | 133° |
| 2026-05-04 20:48 | 25.99732 | -77.91681 | 19991 ft | 460 kts | 133° |
| 2026-05-04 20:48 | 25.97732 | -77.88907 | 19411 ft | 458 kts | 133° |
| 2026-05-04 20:49 | 25.95769 | -77.86185 | 18844 ft | 456 kts | 133° |
| 2026-05-04 20:49 | 25.93790 | -77.83442 | 18278 ft | 454 kts | 133° |
| 2026-05-04 20:49 | 25.91812 | -77.80703 | 17514 ft | 455 kts | 133° |
| 2026-05-04 20:49 | 25.89841 | -77.77976 | 16991 ft | 450 kts | 133° |
| 2026-05-04 20:50 | 25.87892 | -77.75280 | 16451 ft | 446 kts | 133° |
| 2026-05-04 20:50 | 25.85954 | -77.72599 | 15921 ft | 442 kts | 133° |
| 2026-05-04 20:50 | 25.84034 | -77.69947 | 15394 ft | 439 kts | 133° |
| 2026-05-04 20:50 | 25.82129 | -77.67316 | 14866 ft | 436 kts | 133° |
| 2026-05-04 20:51 | 25.80236 | -77.64704 | 14348 ft | 433 kts | 133° |
| 2026-05-04 20:51 | 25.78351 | -77.62103 | 13836 ft | 431 kts | 133° |
| 2026-05-04 20:51 | 25.76480 | -77.59523 | 13271 ft | 428 kts | 132° |
| 2026-05-04 20:51 | 25.74617 | -77.56956 | 12746 ft | 424 kts | 132° |
| 2026-05-04 20:52 | 25.72798 | -77.54450 | 12256 ft | 420 kts | 132° |
| 2026-05-04 20:52 | 25.70945 | -77.51911 | 11766 ft | 415 kts | 134° |
| 2026-05-04 20:52 | 25.68794 | -77.49850 | 11252 ft | 404 kts | 153° |
| 2026-05-04 20:52 | 25.66270 | -77.48768 | 10927 ft | 386 kts | 173° |
| 2026-05-04 20:53 | 25.63674 | -77.48485 | 10832 ft | 365 kts | 180° |
| 2026-05-04 20:53 | 25.61188 | -77.48293 | 10674 ft | 350 kts | 180° |
| 2026-05-04 20:53 | 25.58799 | -77.48124 | 10508 ft | 337 kts | 181° |
| 2026-05-04 20:53 | 25.56508 | -77.47973 | 10343 ft | 324 kts | 181° |
| 2026-05-04 20:54 | 25.54296 | -77.47833 | 10196 ft | 313 kts | 181° |
| 2026-05-04 20:54 | 25.52147 | -77.47698 | 10033 ft | 305 kts | 181° |
| 2026-05-04 20:54 | 25.50036 | -77.47567 | 9735 ft | 303 kts | 181° |
| 2026-05-04 20:54 | 25.47936 | -77.47437 | 9409 ft | 301 kts | 181° |
| 2026-05-04 20:55 | 25.45861 | -77.47308 | 9096 ft | 298 kts | 181° |
| 2026-05-04 20:55 | 25.43831 | -77.47183 | 8802 ft | 294 kts | 181° |
| 2026-05-04 20:55 | 25.41799 | -77.47058 | 8499 ft | 289 kts | 180° |
| 2026-05-04 20:55 | 25.39809 | -77.46935 | 8202 ft | 283 kts | 180° |
| 2026-05-04 20:56 | 25.37861 | -77.46815 | 7923 ft | 277 kts | 180° |
| 2026-05-04 20:56 | 25.35965 | -77.46698 | 7644 ft | 271 kts | 180° |
| 2026-05-04 20:56 | 25.34101 | -77.46582 | 7375 ft | 265 kts | 180° |
| 2026-05-04 20:56 | 25.32274 | -77.46470 | 7110 ft | 260 kts | 180° |
| 2026-05-04 20:57 | 25.30471 | -77.46359 | 6851 ft | 258 kts | 180° |
| 2026-05-04 20:57 | 25.28675 | -77.46248 | 6576 ft | 257 kts | 180° |
| 2026-05-04 20:57 | 25.26918 | -77.46134 | 6318 ft | 256 kts | 177° |
| 2026-05-04 20:57 | 25.25219 | -77.45529 | 5979 ft | 262 kts | 151° |
| 2026-05-04 20:58 | 25.23693 | -77.44437 | 5719 ft | 261 kts | 149° |
| 2026-05-04 20:58 | 25.22166 | -77.43347 | 5439 ft | 261 kts | 149° |
| 2026-05-04 20:58 | 25.20651 | -77.42259 | 5169 ft | 260 kts | 149° |
| 2026-05-04 20:58 | 25.19142 | -77.41170 | 4907 ft | 259 kts | 149° |
| 2026-05-04 20:59 | 25.17642 | -77.40088 | 4656 ft | 256 kts | 149° |
| 2026-05-04 20:59 | 25.16150 | -77.39010 | 4368 ft | 256 kts | 149° |
| 2026-05-04 20:59 | 25.14669 | -77.37940 | 4199 ft | 250 kts | 149° |
| 2026-05-04 20:59 | 25.13237 | -77.36906 | 4074 ft | 241 kts | 149° |
| 2026-05-04 21:00 | 25.11864 | -77.35914 | 3958 ft | 228 kts | 149° |
| 2026-05-04 21:00 | 25.10588 | -77.34992 | 3856 ft | 212 kts | 149° |
| 2026-05-04 21:00 | 25.09391 | -77.34127 | 3723 ft | 198 kts | 149° |
| 2026-05-04 21:00 | 25.08276 | -77.33325 | 3598 ft | 192 kts | 149° |
| 2026-05-04 21:01 | 25.07158 | -77.32519 | 3497 ft | 191 kts | 149° |
| 2026-05-04 21:01 | 25.06045 | -77.31715 | 3399 ft | 191 kts | 149° |
| 2026-05-04 21:01 | 25.04937 | -77.30918 | 3267 ft | 187 kts | 150° |
| 2026-05-04 21:01 | 25.03870 | -77.30148 | 3127 ft | 181 kts | 150° |
| 2026-05-04 21:02 | 25.02822 | -77.29392 | 2952 ft | 179 kts | 149° |
| 2026-05-04 21:02 | 25.01780 | -77.28642 | 2715 ft | 179 kts | 150° |
| 2026-05-04 21:02 | 25.00740 | -77.27893 | 2475 ft | 177 kts | 150° |
| 2026-05-04 21:02 | 24.99712 | -77.27153 | 2325 ft | 176 kts | 150° |
| 2026-05-04 21:03 | 24.98685 | -77.26413 | 2177 ft | 175 kts | 149° |
| 2026-05-04 21:03 | 24.97672 | -77.25695 | 2031 ft | 175 kts | 154° |
| 2026-05-04 21:03 | 24.96531 | -77.25447 | 1934 ft | 165 kts | 194° |
| 2026-05-04 21:03 | 24.95517 | -77.25961 | 1981 ft | 161 kts | 221° |
| 2026-05-04 21:04 | 24.94661 | -77.26775 | 2026 ft | 163 kts | 224° |
| 2026-05-04 21:04 | 24.93821 | -77.27615 | 2018 ft | 163 kts | 225° |
| 2026-05-04 21:04 | 24.92993 | -77.28465 | 2004 ft | 163 kts | 226° |
| 2026-05-04 21:04 | 24.92167 | -77.29327 | 2006 ft | 164 kts | 226° |
| 2026-05-04 21:05 | 24.91418 | -77.30244 | 1952 ft | 162 kts | 247° |
| 2026-05-04 21:05 | 24.91263 | -77.31438 | 1916 ft | 157 kts | 282° |
| 2026-05-04 21:05 | 24.91759 | -77.32486 | 1857 ft | 159 kts | 310° |
| 2026-05-04 21:05 | 24.92521 | -77.33387 | 1831 ft | 161 kts | 311° |
| 2026-05-04 21:06 | 24.93292 | -77.34277 | 1849 ft | 161 kts | 312° |
| 2026-05-04 21:06 | 24.94068 | -77.35161 | 1811 ft | 160 kts | 313° |
| 2026-05-04 21:06 | 24.94842 | -77.36034 | 1740 ft | 160 kts | 313° |
| 2026-05-04 21:06 | 24.95628 | -77.36906 | 1677 ft | 160 kts | 313° |
| 2026-05-04 21:07 | 24.96376 | -77.37771 | 1604 ft | 151 kts | 311° |
| 2026-05-04 21:07 | 24.97093 | -77.38613 | 1449 ft | 152 kts | 313° |
| 2026-05-04 21:07 | 24.97852 | -77.39438 | 1347 ft | 153 kts | 314° |
| 2026-05-04 21:07 | 24.98611 | -77.40272 | 1210 ft | 155 kts | 313° |
| 2026-05-04 21:08 | 24.99362 | -77.41129 | 1034 ft | 155 kts | 314° |
| 2026-05-04 21:08 | 25.00127 | -77.41967 | 838 ft | 156 kts | 315° |
| 2026-05-04 21:08 | 25.00900 | -77.42828 | 648 ft | 161 kts | 316° |
| 2026-05-04 21:08 | 25.01698 | -77.43715 | 425 ft | 169 kts | 316° |
| 2026-05-04 21:09 | 25.02528 | -77.44636 | 215 ft | 171 kts | 317° |
| 2026-05-04 21:09 | 25.03364 | -77.45548 | 30 ft | 164 kts | 316° |
| 2026-05-04 21:09 | 25.04074 | -77.46340 | 27 ft | 116 kts | 315° |
| 2026-05-04 21:09 | 25.04499 | -77.46806 | 29 ft | 70 kts | 315° |
| 2026-05-04 21:10 | 25.04693 | -77.47026 | 27 ft | 16 kts | 314° |
| 2026-05-04 21:10 | 25.04764 | -77.47071 | 27 ft | 12 kts | 8° |
| 2026-05-04 21:10 | 25.04795 | -77.47009 | 28 ft | 10 kts | 88° |
| 2026-05-04 21:10 | 25.04814 | -77.46941 | 27 ft | 9 kts | 38° |
| 2026-05-04 21:11 | 25.04879 | -77.46946 | 26 ft | 11 kts | 359° |
| 2026-05-04 21:11 | 25.04930 | -77.46897 | 26 ft | 11 kts | 64° |
| 2026-05-04 21:11 | 25.04960 | -77.46823 | 26 ft | 8 kts | 65° |
| 2026-05-04 21:11 | 25.04973 | -77.46792 | 27 ft | 4 kts | 66° |
| 2026-05-04 21:12 | 25.04976 | -77.46757 | 25 ft | 5 kts | 100° |
| 2026-05-04 21:12 | 25.04964 | -77.46715 | 26 ft | 3 kts | 110° |
| 2026-05-04 21:12 | 25.04956 | -77.46693 | 25 ft | 3 kts | 110° |
| 2026-05-04 21:12 | 25.04953 | -77.46684 | 25 ft | 0 kts | 110° |